createdAt,value
2019-01-11T00:01:36.632Z,58.50
2019-01-11T00:04:05.694Z,53.57
2019-01-11T00:06:34.751Z,51.20
2019-01-11T00:09:03.838Z,44.80
2019-01-11T00:11:32.900Z,47.30
2019-01-11T00:14:01.969Z,52.33
2019-01-11T00:16:31.059Z,51.10
2019-01-11T00:19:00.116Z,54.87
2019-01-11T00:21:29.177Z,50.63
2019-01-11T00:24:02.746Z,49.07
2019-01-11T00:26:31.800Z,52.70
2019-01-11T00:29:00.882Z,66.03
2019-01-11T00:31:29.927Z,63.70
2019-01-11T00:33:58.993Z,72.00
2019-01-11T00:36:28.071Z,75.07
2019-01-11T00:38:57.132Z,73.40
2019-01-11T00:41:26.188Z,68.70
2019-01-11T00:43:55.288Z,65.50
2019-01-11T00:46:24.354Z,62.50
2019-01-11T00:48:53.406Z,61.90
2019-01-11T00:51:22.505Z,49.87
2019-01-11T00:53:51.568Z,53.93
2019-01-11T00:56:20.618Z,48.77
2019-01-11T00:58:49.697Z,46.87
2019-01-11T01:01:18.765Z,47.20
2019-01-11T01:03:47.809Z,49.30
2019-01-11T01:06:16.911Z,46.60
2019-01-11T01:08:45.966Z,39.87
2019-01-11T01:11:15.020Z,31.30
2019-01-11T01:13:44.115Z,26.03
2019-01-11T01:16:13.160Z,25.63
2019-01-11T01:18:42.221Z,17.30
2019-01-11T01:21:11.307Z,14.97
2019-01-11T01:23:40.359Z,13.80
2019-01-11T01:26:09.416Z,12.10
2019-01-11T01:28:38.511Z,13.33
2019-01-11T01:31:07.550Z,14.87
2019-01-11T01:33:36.621Z,19.20
2019-01-11T01:36:05.704Z,18.73
2019-01-11T01:38:34.760Z,17.00
2019-01-11T01:41:03.819Z,17.53
2019-01-11T01:43:32.907Z,17.10
2019-01-11T01:46:01.963Z,18.20
2019-01-11T01:48:31.016Z,17.70
2019-01-11T01:51:00.122Z,18.87
2019-01-11T01:53:29.173Z,18.67
2019-01-11T01:55:58.225Z,15.23
2019-01-11T01:58:27.312Z,14.67
2019-01-11T02:00:56.362Z,14.67
2019-01-11T02:03:25.399Z,14.63
2019-01-11T02:05:54.477Z,10.53
2019-01-11T02:08:23.526Z,7.73
2019-01-11T02:10:52.582Z,10.43
2019-01-11T02:13:21.678Z,10.47
2019-01-11T02:15:50.712Z,7.83
2019-01-11T02:18:19.756Z,7.00
2019-01-11T02:20:48.828Z,8.03
2019-01-11T02:23:17.863Z,5.80
2019-01-11T02:25:46.917Z,5.67
2019-01-11T02:28:15.983Z,9.13
2019-01-11T02:30:45.028Z,7.20
2019-01-11T02:33:14.070Z,7.93
2019-01-11T02:35:43.172Z,5.07
2019-01-11T02:38:12.208Z,5.27
2019-01-11T02:40:41.265Z,5.97
2019-01-11T02:43:10.326Z,4.50
2019-01-11T02:45:39.380Z,7.27
2019-01-11T02:48:08.426Z,5.70
2019-01-11T02:50:37.498Z,5.10
2019-01-11T02:53:06.529Z,4.27
2019-01-11T02:55:35.571Z,6.77
2019-01-11T02:58:04.675Z,4.37
2019-01-11T03:00:33.746Z,4.47
2019-01-11T03:03:02.760Z,5.17
2019-01-11T03:05:31.836Z,3.80
2019-01-11T03:08:00.880Z,3.33
2019-01-11T03:10:29.924Z,3.27
2019-01-11T03:12:59.002Z,4.47
2019-01-11T03:15:28.049Z,3.50
2019-01-11T03:17:57.112Z,5.33
2019-01-11T03:20:26.213Z,3.37
2019-01-11T03:22:55.247Z,3.83
2019-01-11T03:25:24.287Z,3.30
2019-01-11T03:27:53.361Z,7.33
2019-01-11T03:30:22.403Z,6.03
2019-01-11T03:32:51.450Z,5.10
2019-01-11T03:35:20.602Z,4.40
2019-01-11T03:37:49.650Z,6.97
2019-01-11T03:40:18.698Z,4.17
2019-01-11T03:42:47.810Z,4.80
2019-01-11T03:45:16.857Z,3.97
2019-01-11T03:47:45.909Z,5.00
2019-01-11T03:50:14.979Z,5.47
2019-01-11T03:52:44.019Z,4.60
2019-01-11T03:55:13.059Z,3.50
2019-01-11T03:57:42.137Z,5.37
2019-01-11T04:00:12.113Z,4.57
2019-01-11T04:02:41.157Z,3.43
2019-01-11T04:05:10.296Z,3.97
2019-01-11T04:07:40.126Z,4.67
2019-01-11T04:10:09.159Z,4.83
2019-01-11T04:12:38.241Z,8.83
2019-01-11T04:15:07.285Z,13.80
2019-01-11T04:17:36.333Z,9.37
2019-01-11T04:20:05.415Z,11.60
2019-01-11T04:22:34.460Z,8.60
2019-01-11T04:25:22.321Z,5.93
2019-01-11T04:27:51.550Z,9.13
2019-01-11T04:30:20.592Z,19.00
2019-01-11T04:32:49.763Z,13.37
2019-01-11T04:35:18.849Z,12.33
2019-01-11T04:37:47.886Z,5.07
2019-01-11T04:40:16.958Z,16.17
2019-01-11T04:42:46.020Z,5.30
2019-01-11T04:45:15.082Z,6.87
2019-01-11T04:47:44.173Z,5.30
2019-01-11T04:50:13.219Z,4.40
2019-01-11T04:52:42.270Z,4.93
2019-01-11T04:55:11.345Z,2.97
2019-01-11T04:57:40.394Z,5.40
2019-01-11T05:00:25.525Z,3.93
2019-01-11T05:02:54.564Z,6.60
2019-01-11T05:05:23.602Z,7.80
2019-01-11T05:07:53.589Z,6.83
2019-01-11T05:10:22.633Z,4.20
2019-01-11T05:12:51.675Z,6.77
2019-01-11T05:15:38.653Z,6.30
2019-01-11T05:18:07.692Z,6.97
2019-01-11T05:20:36.731Z,4.87
2019-01-11T05:23:05.917Z,11.20
2019-01-11T05:25:34.969Z,10.17
2019-01-11T05:28:04.022Z,8.43
2019-01-11T05:30:33.110Z,20.40
2019-01-11T05:33:02.166Z,17.27
2019-01-11T05:35:31.234Z,23.20
2019-01-11T05:38:00.331Z,10.90
2019-01-11T05:40:29.424Z,27.37
2019-01-11T05:42:58.486Z,23.83
2019-01-11T05:45:27.590Z,15.77
2019-01-11T05:47:56.668Z,28.93
2019-01-11T05:50:25.714Z,7.07
2019-01-11T05:52:54.790Z,6.80
2019-01-11T05:55:23.828Z,6.20
2019-01-11T05:57:53.682Z,10.20
2019-01-11T06:00:22.775Z,14.23
2019-01-11T06:02:51.827Z,13.90
2019-01-11T06:05:20.890Z,17.80
2019-01-11T06:07:49.998Z,9.97
2019-01-11T06:10:19.855Z,17.73
2019-01-11T06:12:48.908Z,23.97
2019-01-11T06:15:18.007Z,19.77
2019-01-11T06:17:47.308Z,25.13
2019-01-11T06:20:16.383Z,18.97
2019-01-11T06:22:45.462Z,11.03
2019-01-11T06:25:14.517Z,9.93
2019-01-11T06:27:43.586Z,14.23
2019-01-11T06:30:12.865Z,14.77
2019-01-11T06:32:41.927Z,14.90
2019-01-11T06:35:35.827Z,12.67
2019-01-11T06:38:04.878Z,13.73
2019-01-11T06:40:33.964Z,10.93
2019-01-11T06:43:03.634Z,12.73
2019-01-11T06:45:32.072Z,20.17
2019-01-11T06:48:01.302Z,38.93
2019-01-11T06:50:36.272Z,42.27
2019-01-11T06:52:59.434Z,27.33
2019-01-11T06:55:28.532Z,28.87
2019-01-11T06:57:57.591Z,28.47
2019-01-11T07:00:26.653Z,25.47
2019-01-11T07:02:55.747Z,24.63
2019-01-11T07:05:24.806Z,27.40
2019-01-11T07:07:53.875Z,26.17
2019-01-11T07:10:23.818Z,21.30
2019-01-11T07:12:52.880Z,31.50
2019-01-11T07:15:41.129Z,29.27
2019-01-11T07:18:10.185Z,16.07
2019-01-11T07:20:42.911Z,17.70
2019-01-11T07:23:08.341Z,13.37
2019-01-11T07:25:37.405Z,15.83
2019-01-11T07:28:06.454Z,15.87
2019-01-11T07:30:35.546Z,11.63
2019-01-11T07:33:04.616Z,17.07
2019-01-11T07:35:34.644Z,16.17
2019-01-11T07:38:03.726Z,20.53
2019-01-11T07:40:32.776Z,20.33
2019-01-11T07:43:01.838Z,14.57
2019-01-11T07:45:30.930Z,15.37
2019-01-11T07:47:59.983Z,13.57
2019-01-11T07:50:29.041Z,11.77
2019-01-11T07:52:58.159Z,19.20
2019-01-11T07:55:27.209Z,19.30
2019-01-11T07:57:56.267Z,14.43
2019-01-11T08:00:25.345Z,12.80
2019-01-11T08:02:54.405Z,10.40
2019-01-11T08:05:23.479Z,13.63
2019-01-11T08:07:52.527Z,10.53
2019-01-11T08:10:21.574Z,14.07
2019-01-11T08:12:50.630Z,14.43
2019-01-11T08:15:19.724Z,13.40
2019-01-11T08:17:48.768Z,9.57
2019-01-11T08:20:17.805Z,10.57
2019-01-11T08:22:46.890Z,12.13
2019-01-11T08:25:15.925Z,9.37
2019-01-11T08:27:44.970Z,11.40
2019-01-11T08:30:14.111Z,11.97
2019-01-11T08:32:43.155Z,12.53
2019-01-11T08:35:23.362Z,9.33
2019-01-11T08:37:52.419Z,19.40
2019-01-11T08:40:21.478Z,25.20
2019-01-11T08:42:50.593Z,18.33
2019-01-11T08:45:19.607Z,9.57
2019-01-11T08:47:48.654Z,12.77
2019-01-11T08:50:18.597Z,13.20
2019-01-11T08:52:47.645Z,17.90
2019-01-11T08:55:16.707Z,11.90
2019-01-11T08:57:46.181Z,15.57
2019-01-11T09:00:15.260Z,13.80
2019-01-11T09:02:44.318Z,9.10
2019-01-11T09:05:13.384Z,9.07
2019-01-11T09:07:42.431Z,11.97
2019-01-11T09:10:11.489Z,10.47
2019-01-11T09:12:41.361Z,13.50
2019-01-11T09:15:10.424Z,10.13
2019-01-11T09:17:43.455Z,10.07
2019-01-11T09:20:12.504Z,13.07
2019-01-11T09:22:41.546Z,10.20
2019-01-11T09:25:10.616Z,10.00
2019-01-11T09:27:39.680Z,11.07
2019-01-11T09:30:08.727Z,9.77
2019-01-11T09:32:37.811Z,11.23
2019-01-11T09:35:06.854Z,9.37
2019-01-11T09:37:35.902Z,10.43
2019-01-11T09:40:05.044Z,10.13
2019-01-11T09:42:34.099Z,15.07
2019-01-11T09:45:03.132Z,9.57
2019-01-11T09:47:32.209Z,8.53
2019-01-11T09:50:01.310Z,25.80
2019-01-11T09:52:30.358Z,9.97
2019-01-11T09:54:59.445Z,10.97
2019-01-11T09:57:28.484Z,9.90
2019-01-11T09:59:57.530Z,11.07
2019-01-11T10:02:32.178Z,9.50
2019-01-11T10:05:01.174Z,10.83
2019-01-11T10:07:30.230Z,10.63
2019-01-11T10:09:59.316Z,11.00
2019-01-11T10:12:28.367Z,10.03
2019-01-11T10:14:58.239Z,9.87
2019-01-11T10:17:27.351Z,16.67
2019-01-11T10:19:56.381Z,11.20
2019-01-11T10:22:25.419Z,10.87
2019-01-11T10:24:54.561Z,14.37
2019-01-11T10:27:23.613Z,11.50
2019-01-11T10:29:52.666Z,10.23
2019-01-11T10:32:21.754Z,10.20
2019-01-11T10:34:50.788Z,7.83
2019-01-11T10:37:19.830Z,8.07
2019-01-11T10:39:48.906Z,11.57
2019-01-11T10:42:17.963Z,10.23
2019-01-11T10:44:47.019Z,37.13
2019-01-11T10:47:16.119Z,49.70
2019-01-11T10:49:45.190Z,178.77
2019-01-11T10:52:14.244Z,53.43
2019-01-11T10:55:01.308Z,35.53
2019-01-11T10:57:30.362Z,17.33
2019-01-11T10:59:59.401Z,9.80
2019-01-11T11:02:28.541Z,10.97
2019-01-11T11:04:57.589Z,8.90
2019-01-11T11:07:26.626Z,9.43
2019-01-11T11:09:55.704Z,11.90
2019-01-11T11:12:24.758Z,11.87
2019-01-11T11:14:53.798Z,12.07
2019-01-11T11:17:22.892Z,9.10
2019-01-11T11:19:51.938Z,7.97
2019-01-11T11:22:20.974Z,8.27
2019-01-11T11:24:50.080Z,9.07
2019-01-11T11:27:19.135Z,11.23
2019-01-11T11:29:48.198Z,18.37
2019-01-11T11:32:17.281Z,13.33
2019-01-11T11:34:46.359Z,18.90
2019-01-11T11:37:17.802Z,10.63
2019-01-11T11:39:44.494Z,14.73
2019-01-11T11:42:16.845Z,10.20
2019-01-11T11:44:42.882Z,14.10
2019-01-11T11:47:11.978Z,11.13
2019-01-11T11:49:41.038Z,21.00
2019-01-11T11:52:10.095Z,48.43
2019-01-11T11:54:39.209Z,67.70
2019-01-11T11:57:08.273Z,63.50
2019-01-11T11:59:37.319Z,111.70
2019-01-11T12:02:06.392Z,75.43
2019-01-11T12:04:35.452Z,150.47
2019-01-11T12:07:07.625Z,35.23
2019-01-11T12:09:33.618Z,61.40
2019-01-11T12:12:02.682Z,66.00
2019-01-11T12:14:56.010Z,42.30
2019-01-11T12:17:25.053Z,36.10
2019-01-11T12:19:57.042Z,23.50
2019-01-11T12:22:23.181Z,21.30
2019-01-11T12:25:17.904Z,11.37
2019-01-11T12:27:47.361Z,13.30
2019-01-11T12:30:16.229Z,17.30
2019-01-11T12:32:45.283Z,28.33
2019-01-11T12:35:14.328Z,15.07
2019-01-11T12:37:43.412Z,19.37
2019-01-11T12:40:12.468Z,17.73
2019-01-11T12:42:41.533Z,21.70
2019-01-11T12:45:10.659Z,14.93
2019-01-11T12:47:39.722Z,15.13
2019-01-11T12:50:08.793Z,18.13
2019-01-11T12:52:37.874Z,25.03
2019-01-11T12:55:06.986Z,18.80
2019-01-11T12:57:36.043Z,38.33
2019-01-11T13:00:05.129Z,23.50
2019-01-11T13:02:34.180Z,51.10
2019-01-11T13:05:03.235Z,25.00
2019-01-11T13:07:32.329Z,51.80
2019-01-11T13:10:01.391Z,41.20
2019-01-11T13:12:30.442Z,15.20
2019-01-11T13:14:59.525Z,26.40
2019-01-11T13:17:29.626Z,38.70
2019-01-11T13:19:58.678Z,16.63
2019-01-11T13:22:27.798Z,25.83
2019-01-11T13:24:56.851Z,17.43
2019-01-11T13:27:25.899Z,19.27
2019-01-11T13:29:54.997Z,22.17
2019-01-11T13:32:24.070Z,35.00
2019-01-11T13:34:53.133Z,23.17
2019-01-11T13:37:22.212Z,33.53
2019-01-11T13:39:51.292Z,23.30
2019-01-11T13:42:20.354Z,22.63
2019-01-11T13:44:49.464Z,47.20
2019-01-11T13:47:18.535Z,19.73
2019-01-11T13:49:47.601Z,16.97
2019-01-11T13:52:16.738Z,23.10
2019-01-11T13:54:45.793Z,30.83
2019-01-11T13:57:14.855Z,11.57
2019-01-11T13:59:43.947Z,11.83
2019-01-11T14:02:12.993Z,20.93
2019-01-11T14:04:42.074Z,21.10
2019-01-11T14:07:11.315Z,43.53
2019-01-11T14:09:40.382Z,17.23
2019-01-11T14:12:09.439Z,59.23
2019-01-11T14:14:38.520Z,38.03
2019-01-11T14:17:07.583Z,23.57
2019-01-11T14:19:37.470Z,36.33
2019-01-11T14:22:06.558Z,17.77
2019-01-11T14:24:35.626Z,57.77
2019-01-11T14:27:04.677Z,32.70
2019-01-11T14:29:33.808Z,25.77
2019-01-11T14:32:02.870Z,22.90
2019-01-11T14:34:31.927Z,14.10
2019-01-11T14:37:01.021Z,13.30
2019-01-11T14:39:31.016Z,13.23
2019-01-11T14:42:00.059Z,10.27
2019-01-11T14:44:29.152Z,18.37
2019-01-11T14:46:58.200Z,22.17
2019-01-11T14:49:27.252Z,15.93
2019-01-11T14:51:56.334Z,137.07
2019-01-11T14:54:33.443Z,45.80
2019-01-11T14:57:02.572Z,25.33
2019-01-11T14:59:31.618Z,24.23
2019-01-11T15:02:00.650Z,18.00
2019-01-11T15:04:29.736Z,21.93
2019-01-11T15:06:58.792Z,29.30
2019-01-11T15:09:27.850Z,25.97
2019-01-11T15:11:56.978Z,19.77
2019-01-11T15:14:26.038Z,21.00
2019-01-11T15:16:55.094Z,27.03
2019-01-11T15:19:24.173Z,28.23
2019-01-11T15:21:53.237Z,57.37
2019-01-11T15:24:22.293Z,72.27
2019-01-11T15:26:51.427Z,55.47
2019-01-11T15:29:20.488Z,58.37
2019-01-11T15:31:49.537Z,60.33
2019-01-11T15:34:19.454Z,35.00
2019-01-11T15:36:48.508Z,29.33
2019-01-11T15:39:17.562Z,60.17
2019-01-11T15:41:46.640Z,66.60
2019-01-11T15:44:15.685Z,50.70
2019-01-11T15:46:44.746Z,35.70
2019-01-11T15:49:13.830Z,39.07
2019-01-11T15:51:42.878Z,41.10
2019-01-11T15:54:24.186Z,47.63
2019-01-11T15:56:53.235Z,76.97
2019-01-11T15:59:22.289Z,52.67
2019-01-11T16:01:51.376Z,39.03
2019-01-11T16:04:20.442Z,40.00
2019-01-11T16:06:49.507Z,35.00
2019-01-11T16:09:20.398Z,37.47
2019-01-11T16:11:52.050Z,53.97
2019-01-11T16:14:28.735Z,50.40
2019-01-11T16:16:57.797Z,38.47
2019-01-11T16:19:26.874Z,53.00
2019-01-11T16:21:56.758Z,29.80
2019-01-11T16:24:25.815Z,32.93
2019-01-11T16:26:54.882Z,30.70
2019-01-11T16:29:23.967Z,31.77
2019-01-11T16:31:53.036Z,51.43
2019-01-11T16:37:27.084Z,56.90
2019-01-11T16:39:56.241Z,43.47
2019-01-11T16:42:25.312Z,59.20
2019-01-11T16:45:09.579Z,62.30
2019-01-11T16:47:38.632Z,69.60
2019-01-11T16:50:07.681Z,47.33
2019-01-11T16:52:36.786Z,42.50
2019-01-11T16:55:05.857Z,80.33
2019-01-11T16:57:34.913Z,30.20
2019-01-11T17:00:03.995Z,34.00
2019-01-11T17:02:36.595Z,27.80
2019-01-11T17:05:02.171Z,33.43
2019-01-11T17:07:31.268Z,23.27
2019-01-11T17:10:00.400Z,23.03
2019-01-11T17:12:29.401Z,121.50
2019-01-11T17:14:58.530Z,147.33
2019-01-11T17:17:27.586Z,89.30
2019-01-11T17:19:56.653Z,82.90
2019-01-11T17:22:25.761Z,64.30
2019-01-11T17:24:54.861Z,36.17
2019-01-11T17:27:23.946Z,34.37
2019-01-11T17:29:53.060Z,28.93
2019-01-11T17:32:22.194Z,29.43
2019-01-11T17:34:51.254Z,23.33
2019-01-11T17:37:20.425Z,36.47
2019-01-11T17:39:49.526Z,415.43
2019-01-11T17:42:18.590Z,395.70
2019-01-11T17:45:12.203Z,543.27
2019-01-11T17:47:41.271Z,105.63
2019-01-11T17:50:14.866Z,112.97
2019-01-11T17:52:44.133Z,96.20
2019-01-11T17:55:13.239Z,50.67
2019-01-11T17:57:42.296Z,44.77
2019-01-11T18:00:11.363Z,36.33
2019-01-11T18:02:40.450Z,48.43
2019-01-11T18:05:14.927Z,28.40
2019-01-11T18:07:44.022Z,43.17
2019-01-11T18:10:13.957Z,35.30
2019-01-11T18:12:42.147Z,60.97
2019-01-11T18:15:11.251Z,439.33
2019-01-11T18:17:40.320Z,381.80
2019-01-11T18:20:10.836Z,293.50
2019-01-11T18:22:40.001Z,137.53
2019-01-11T18:25:09.074Z,120.20
2019-01-11T18:27:38.141Z,99.27
2019-01-11T18:30:08.206Z,63.20
2019-01-11T18:32:37.267Z,51.70
2019-01-11T18:35:06.362Z,56.93
2019-01-11T18:37:35.454Z,46.70
2019-01-11T18:40:04.512Z,48.30
2019-01-11T18:42:33.566Z,35.40
2019-01-11T18:45:02.669Z,29.37
2019-01-11T18:47:31.728Z,26.63
2019-01-11T18:50:00.777Z,27.07
2019-01-11T18:52:29.890Z,23.20
2019-01-11T18:54:58.948Z,25.67
2019-01-11T18:57:28.007Z,16.60
2019-01-11T18:59:57.136Z,20.47
2019-01-11T19:02:26.152Z,23.73
2019-01-11T19:04:55.205Z,16.03
2019-01-11T19:07:24.831Z,16.90
2019-01-11T19:09:54.018Z,18.93
2019-01-11T19:12:23.198Z,42.33
2019-01-11T19:14:52.231Z,27.10
2019-01-11T19:17:21.281Z,21.60
2019-01-11T19:19:50.351Z,20.27
2019-01-11T19:22:19.445Z,48.20
2019-01-11T19:24:48.515Z,44.70
2019-01-11T19:27:17.577Z,34.20
2019-01-11T19:29:46.656Z,40.07
2019-01-11T19:32:15.710Z,70.80
2019-01-11T19:34:44.762Z,58.10
2019-01-11T19:37:13.884Z,61.70
2019-01-11T19:39:42.956Z,110.70
2019-01-11T19:42:12.023Z,112.80
2019-01-11T19:44:41.120Z,114.63
2019-01-11T19:47:10.192Z,104.30
2019-01-11T19:49:39.252Z,62.77
2019-01-11T19:52:08.334Z,50.67
2019-01-11T19:54:41.714Z,32.07
2019-01-11T19:57:10.821Z,27.90
2019-01-11T19:59:39.877Z,18.97
2019-01-11T20:02:08.946Z,22.73
2019-01-11T20:04:38.031Z,32.63
2019-01-11T20:07:07.099Z,31.77
2019-01-11T20:09:36.154Z,41.20
2019-01-11T20:12:05.259Z,35.07
2019-01-11T20:14:34.314Z,32.97
2019-01-11T20:17:03.375Z,40.87
2019-01-11T20:19:32.486Z,43.40
2019-01-11T20:22:01.544Z,44.00
2019-01-11T20:24:30.642Z,40.00
2019-01-11T20:26:59.723Z,51.37
2019-01-11T20:29:28.770Z,38.13
2019-01-11T20:31:57.821Z,32.10
2019-01-11T20:34:26.895Z,35.97
2019-01-11T20:36:55.965Z,32.33
2019-01-11T20:39:25.019Z,34.37
2019-01-11T20:41:54.142Z,28.37
2019-01-11T20:44:27.859Z,41.73
2019-01-11T20:46:56.953Z,56.40
2019-01-11T20:49:26.037Z,60.20
2019-01-11T20:51:55.102Z,57.70
2019-01-11T20:54:24.193Z,55.77
2019-01-11T20:56:53.254Z,63.53
2019-01-11T20:59:22.318Z,62.47
2019-01-11T21:01:51.472Z,104.40
2019-01-11T21:04:20.544Z,54.00
2019-01-11T21:06:49.637Z,33.23
2019-01-11T21:09:18.718Z,38.53
2019-01-11T21:11:47.787Z,39.07
2019-01-11T21:14:16.851Z,42.10
2019-01-11T21:16:45.939Z,49.17
2019-01-11T21:19:15.009Z,53.07
2019-01-11T21:21:44.056Z,57.10
2019-01-11T21:24:13.206Z,74.20
2019-01-11T21:26:42.519Z,80.17
2019-01-11T21:29:11.594Z,88.70
2019-01-11T21:31:40.692Z,81.57
2019-01-11T21:34:09.800Z,71.00
2019-01-11T21:36:38.964Z,65.90
2019-01-11T21:39:08.082Z,51.17
2019-01-11T21:41:37.185Z,51.17
2019-01-11T21:44:06.249Z,44.93
2019-01-11T21:46:35.341Z,53.83
2019-01-11T21:49:04.401Z,50.80
2019-01-11T21:51:33.468Z,58.27
2019-01-11T21:57:08.105Z,58.43
2019-01-11T21:59:37.207Z,55.27
2019-01-11T22:02:06.282Z,45.80
2019-01-11T22:04:35.392Z,43.77
2019-01-11T22:07:04.469Z,48.57
2019-01-11T22:09:33.525Z,54.37
2019-01-11T22:12:02.587Z,50.57
2019-01-11T22:14:31.690Z,57.63
2019-01-11T22:17:00.750Z,64.83
2019-01-11T22:19:29.812Z,63.83
2019-01-11T22:21:58.898Z,75.33
2019-01-11T22:27:23.754Z,70.00
2019-01-11T22:29:52.815Z,64.37
2019-01-11T22:32:21.877Z,61.43
2019-01-11T22:34:51.017Z,45.93
2019-01-11T22:37:20.094Z,50.13
2019-01-11T22:39:49.151Z,43.77
2019-01-11T22:42:18.411Z,42.63
2019-01-11T22:44:47.683Z,38.63
2019-01-11T22:47:16.730Z,36.03
2019-01-11T22:49:45.829Z,35.20
2019-01-11T22:52:14.888Z,38.87
2019-01-11T22:54:43.940Z,33.33
2019-01-11T22:57:13.586Z,44.20
2019-01-11T22:59:42.110Z,47.73
2019-01-11T23:02:11.169Z,49.67
2019-01-11T23:04:40.253Z,49.67
2019-01-11T23:07:09.306Z,53.43
2019-01-11T23:09:38.375Z,57.20
2019-01-11T23:12:09.370Z,41.60
2019-01-11T23:14:38.413Z,43.07
2019-01-11T23:17:07.467Z,44.03
2019-01-11T23:19:36.627Z,46.13
2019-01-11T23:22:05.685Z,46.80
2019-01-11T23:24:34.741Z,31.83
2019-01-11T23:27:03.888Z,34.10
2019-01-11T23:29:33.042Z,23.57
2019-01-11T23:32:02.110Z,23.50
2019-01-11T23:34:31.557Z,25.50
2019-01-11T23:37:00.605Z,20.20
2019-01-11T23:39:29.658Z,16.43
2019-01-11T23:41:58.746Z,22.63
2019-01-11T23:44:27.792Z,14.13
2019-01-11T23:46:56.844Z,15.23
2019-01-11T23:49:25.919Z,13.87
2019-01-11T23:51:54.983Z,20.07
2019-01-11T23:54:28.966Z,16.33
2019-01-11T23:56:58.020Z,16.80
2019-01-11T23:59:27.111Z,17.80
